Time;durP1;ratioP1;P1;durP2;ratioP2;P2;SDS_P1;SDS_P2;PMS_P1;PMS_P2;Temp;Humidity;BMP_temperature;BMP_pressure;BME280_temperature;BME280_humidity;BME280_pressure;Samples;Min_cycle;Max_cycle;Signal;HPM_P1;HPM_P2
2023/06/19 00:02:13;;;;;;;2.22;1.48;;;23.00;52.80;;;;;;5000637;28;20050;-89
2023/06/19 00:04:40;;;;;;;3.33;1.60;;;23.00;52.90;;;;;;5019425;28;20041;-89
2023/06/19 00:07:07;;;;;;;2.95;1.90;;;23.00;53.10;;;;;;4987137;28;20076;-89
2023/06/19 00:09:37;;;;;;;3.80;2.10;;;22.90;53.10;;;;;;5011223;28;20048;-90
2023/06/19 00:12:05;;;;;;;2.90;1.70;;;22.90;53.20;;;;;;5022773;28;20049;-89
2023/06/19 00:14:32;;;;;;;3.42;1.80;;;22.90;53.30;;;;;;5020376;28;20143;-89
2023/06/19 00:17:00;;;;;;;3.40;1.90;;;22.90;53.40;;;;;;5002761;28;20041;-89
2023/06/19 00:19:27;;;;;;;2.60;1.80;;;22.90;53.50;;;;;;5003109;28;20053;-89
2023/06/19 00:21:57;;;;;;;3.13;1.98;;;22.90;53.60;;;;;;5010777;28;20053;-88
2023/06/19 00:24:24;;;;;;;2.35;1.60;;;22.90;53.70;;;;;;5016671;28;20062;-89
2023/06/19 00:26:51;;;;;;;3.50;1.92;;;22.90;53.80;;;;;;4998602;28;20042;-89
2023/06/19 00:29:19;;;;;;;3.47;1.88;;;22.90;54.00;;;;;;5023130;28;20103;-89
2023/06/19 00:31:46;;;;;;;4.05;2.40;;;22.90;54.10;;;;;;5009130;28;20053;-90
2023/06/19 00:34:14;;;;;;;3.05;2.15;;;22.80;54.20;;;;;;5001224;28;20037;-89
2023/06/19 00:36:41;;;;;;;2.90;1.70;;;22.70;54.40;;;;;;4992983;28;20124;-90
2023/06/19 00:39:09;;;;;;;3.83;2.10;;;22.70;54.60;;;;;;5023301;28;20045;-89
2023/06/19 00:41:37;;;;;;;3.63;1.95;;;22.70;54.70;;;;;;4978644;28;20129;-89
2023/06/19 00:44:04;;;;;;;2.55;1.63;;;22.80;54.70;;;;;;5015144;28;20148;-89
2023/06/19 00:46:32;;;;;;;3.55;1.80;;;22.80;54.70;;;;;;4989039;28;20045;-89
2023/06/19 00:48:59;;;;;;;3.15;1.88;;;22.80;54.80;;;;;;5019720;28;20056;-89
2023/06/19 00:51:26;;;;;;;2.30;1.60;;;22.80;54.80;;;;;;5002388;28;20109;-89
2023/06/19 00:53:54;;;;;;;2.97;1.70;;;22.80;54.90;;;;;;4988013;28;20046;-87
2023/06/19 00:56:21;;;;;;;2.35;1.50;;;22.80;55.00;;;;;;4998985;28;20113;-88
2023/06/19 00:58:50;;;;;;;4.07;1.98;;;22.80;55.10;;;;;;5012393;28;20452;-88
2023/06/19 01:01:19;;;;;;;4.53;2.15;;;22.80;55.20;;;;;;5002104;28;20511;-88
2023/06/19 01:03:46;;;;;;;3.85;2.05;;;22.80;55.30;;;;;;5002453;28;20508;-88
2023/06/19 01:06:21;;;;;;;2.88;1.70;;;22.90;55.50;;;;;;5013993;28;20061;-88
2023/06/19 01:09:13;;;;;;;2.60;1.50;;;22.90;55.40;;;;;;5022019;28;20396;-88
2023/06/19 01:11:48;;;;;;;2.45;1.50;;;22.90;55.50;;;;;;5007384;28;20042;-88
2023/06/19 01:14:21;;;;;;;3.75;2.45;;;22.90;55.50;;;;;;4982508;28;20045;-88
2023/06/19 01:16:48;;;;;;;3.40;2.50;;;22.90;55.60;;;;;;5003347;28;20052;-87
2023/06/19 01:19:21;;;;;;;3.75;2.20;;;22.90;55.80;;;;;;4991280;28;20105;-88
2023/06/19 01:21:49;;;;;;;5.10;2.92;;;22.90;56.20;;;;;;5017205;28;20075;-88
2023/06/19 01:24:16;;;;;;;4.00;2.97;;;23.00;56.40;;;;;;5027303;28;20050;-88
2023/06/19 01:26:47;;;;;;;4.70;2.83;;;23.00;56.50;;;;;;5003750;28;20052;-88
2023/06/19 01:29:16;;;;;;;4.00;2.42;;;23.00;56.50;;;;;;4987217;28;20049;-88
2023/06/19 01:31:50;;;;;;;3.55;2.45;;;23.00;56.50;;;;;;5003574;28;20045;-88
2023/06/19 01:34:19;;;;;;;3.25;1.88;;;22.90;56.40;;;;;;5001434;28;20080;-88
2023/06/19 01:36:49;;;;;;;3.47;2.03;;;22.90;56.40;;;;;;5004596;28;20042;-88
2023/06/19 01:39:18;;;;;;;3.83;2.08;;;22.90;56.50;;;;;;5018274;28;20104;-88
2023/06/19 01:41:46;;;;;;;3.80;1.83;;;22.80;56.50;;;;;;4997871;28;20054;-88
2023/06/19 01:44:14;;;;;;;2.90;1.88;;;22.80;56.50;;;;;;5005603;28;20048;-88
2023/06/19 01:46:48;;;;;;;2.88;1.70;;;22.80;56.70;;;;;;5015009;28;20118;-88
2023/06/19 01:49:16;;;;;;;2.92;1.77;;;22.70;56.80;;;;;;5008757;28;20128;-87
2023/06/19 01:51:45;;;;;;;4.57;2.25;;;22.60;57.00;;;;;;5011977;28;20536;-88
2023/06/19 01:54:12;;;;;;;3.33;1.50;;;22.60;57.20;;;;;;5017085;28;20041;-89
2023/06/19 01:56:40;;;;;;;3.92;2.00;;;22.60;57.30;;;;;;4991246;28;20068;-88
2023/06/19 01:59:07;;;;;;;3.22;1.80;;;22.50;57.50;;;;;;4999034;28;20064;-88
2023/06/19 02:01:35;;;;;;;2.67;1.42;;;22.40;57.60;;;;;;5029830;28;20416;-88
2023/06/19 02:04:02;;;;;;;3.42;1.50;;;22.30;57.60;;;;;;5001170;28;20050;-87
2023/06/19 02:06:31;;;;;;;3.47;1.95;;;22.30;57.80;;;;;;5005894;28;20059;-88
2023/06/19 02:08:58;;;;;;;3.75;2.10;;;22.20;58.00;;;;;;5020920;28;20076;-88
2023/06/19 02:11:26;;;;;;;3.42;2.00;;;22.20;58.20;;;;;;5006146;28;20068;-89
2023/06/19 02:13:54;;;;;;;3.13;1.95;;;22.10;58.60;;;;;;5012800;28;20050;-88
2023/06/19 02:16:21;;;;;;;2.83;1.83;;;22.10;58.80;;;;;;5019002;28;20053;-88
2023/06/19 02:18:48;;;;;;;3.20;1.73;;;22.00;58.70;;;;;;5014741;28;20144;-88
2023/06/19 02:21:16;;;;;;;2.67;1.63;;;22.00;58.90;;;;;;5002259;28;20124;-88
2023/06/19 02:23:46;;;;;;;2.60;1.42;;;21.90;58.90;;;;;;5006006;28;20140;-89
2023/06/19 02:26:13;;;;;;;3.05;1.55;;;21.90;59.10;;;;;;5015848;28;20054;-88
2023/06/19 02:28:40;;;;;;;4.25;2.05;;;21.80;59.30;;;;;;4988826;28;20512;-89
2023/06/19 02:31:07;;;;;;;4.80;2.03;;;21.80;60.30;;;;;;4984925;28;20129;-88
2023/06/19 02:33:35;;;;;;;2.85;1.60;;;21.70;60.30;;;;;;4992714;28;20041;-88
2023/06/19 02:36:03;;;;;;;3.60;1.65;;;21.70;60.20;;;;;;5010355;28;20095;-88
2023/06/19 02:38:30;;;;;;;4.40;1.67;;;21.70;60.50;;;;;;5033875;28;21043;-88
2023/06/19 02:40:57;;;;;;;2.75;1.70;;;21.60;60.40;;;;;;5016641;28;20056;-88
2023/06/19 02:43:24;;;;;;;3.15;1.52;;;21.50;60.80;;;;;;5020209;28;20045;-88
2023/06/19 02:45:51;;;;;;;2.63;1.48;;;21.40;61.00;;;;;;5001273;28;20490;-88
2023/06/19 02:48:19;;;;;;;2.72;1.27;;;21.40;61.20;;;;;;5009189;28;20056;-88
2023/06/19 02:50:46;;;;;;;3.40;1.60;;;21.40;61.20;;;;;;5020160;28;20646;-88
2023/06/19 02:53:14;;;;;;;2.50;1.10;;;21.30;62.50;;;;;;5036081;28;20052;-88
2023/06/19 02:55:41;;;;;;;3.13;1.75;;;21.30;62.20;;;;;;5004809;28;20041;-88
2023/06/19 02:58:09;;;;;;;3.30;1.30;;;21.20;62.30;;;;;;5007787;28;20041;-87
2023/06/19 03:00:38;;;;;;;2.75;1.20;;;21.20;62.30;;;;;;5012393;28;20041;-87
2023/06/19 03:03:05;;;;;;;2.42;0.95;;;21.10;62.60;;;;;;5019611;28;20478;-87
2023/06/19 03:05:32;;;;;;;2.40;1.10;;;21.10;62.60;;;;;;5019348;28;20056;-88
2023/06/19 03:08:00;;;;;;;1.80;0.70;;;21.00;62.60;;;;;;5015375;28;20095;-88
2023/06/19 03:10:27;;;;;;;2.13;0.73;;;21.00;62.70;;;;;;5001625;28;20049;-88
2023/06/19 03:12:55;;;;;;;1.77;0.80;;;21.10;62.90;;;;;;5019772;28;20119;-88
2023/06/19 03:15:22;;;;;;;1.40;0.57;;;21.10;63.70;;;;;;4999772;28;20042;-88
2023/06/19 03:17:50;;;;;;;2.22;1.00;;;21.10;63.20;;;;;;4986229;28;20046;-88
2023/06/19 03:20:18;;;;;;;1.80;0.93;;;21.10;63.40;;;;;;4984105;28;20080;-89
2023/06/19 03:22:53;;;;;;;1.65;0.80;;;21.10;63.70;;;;;;4981747;28;20050;-88
2023/06/19 03:25:21;;;;;;;2.13;0.90;;;21.10;63.90;;;;;;5008805;28;20098;-88
2023/06/19 03:27:49;;;;;;;2.58;1.10;;;21.00;64.10;;;;;;5019835;28;20049;-88
2023/06/19 03:30:18;;;;;;;2.30;1.00;;;21.00;64.80;;;;;;5012891;28;20163;-88
2023/06/19 03:32:48;;;;;;;2.35;1.02;;;21.00;64.60;;;;;;5006973;28;20045;-88
2023/06/19 03:35:34;;;;;;;1.23;0.52;;;20.90;64.60;;;;;;4996571;28;20130;-88
2023/06/19 03:38:02;;;;;;;2.05;0.70;;;20.80;64.80;;;;;;4997270;28;20046;-87
2023/06/19 03:40:30;;;;;;;1.60;0.57;;;20.80;64.80;;;;;;4999760;28;20037;-88
2023/06/19 03:43:03;;;;;;;1.08;0.57;;;20.80;64.80;;;;;;4993369;28;20068;-88
2023/06/19 03:45:31;;;;;;;1.92;0.77;;;20.80;64.90;;;;;;5017204;28;20057;-88
2023/06/19 03:47:59;;;;;;;1.25;0.50;;;20.80;64.90;;;;;;5008474;28;20056;-88
2023/06/19 03:50:29;;;;;;;1.35;0.43;;;20.90;64.90;;;;;;4999867;28;20059;-88
2023/06/19 03:52:56;;;;;;;1.30;0.60;;;21.00;64.70;;;;;;4992747;28;20049;-88
2023/06/19 03:55:24;;;;;;;1.45;0.60;;;21.00;64.50;;;;;;5009201;28;20440;-88
2023/06/19 03:57:52;;;;;;;1.35;0.50;;;21.10;64.70;;;;;;4971943;28;20042;-88
2023/06/19 04:00:22;;;;;;;1.60;0.70;;;21.10;64.60;;;;;;4980263;28;20165;-89
2023/06/19 04:02:50;;;;;;;1.13;0.60;;;21.20;64.70;;;;;;4982536;28;20053;-88
2023/06/19 04:05:19;;;;;;;1.55;0.60;;;21.20;64.70;;;;;;4986168;28;20065;-88
2023/06/19 04:07:47;;;;;;;1.30;0.50;;;21.20;64.70;;;;;;5029316;28;20056;-89
2023/06/19 04:10:14;;;;;;;1.63;0.73;;;21.20;65.50;;;;;;5026083;28;20099;-88
2023/06/19 04:12:42;;;;;;;1.75;0.50;;;21.30;64.90;;;;;;4979112;28;20073;-88
2023/06/19 04:15:09;;;;;;;1.55;0.57;;;21.20;65.70;;;;;;5005053;28;20495;-88
2023/06/19 04:17:37;;;;;;;1.35;0.60;;;21.20;65.10;;;;;;4997242;28;20045;-88
2023/06/19 04:20:10;;;;;;;1.55;0.63;;;21.20;65.30;;;;;;5015942;28;20072;-88
2023/06/19 04:22:39;;;;;;;1.75;0.80;;;21.20;65.30;;;;;;4995874;28;20113;-88
2023/06/19 04:25:08;;;;;;;1.77;0.60;;;21.30;65.80;;;;;;5002516;28;20497;-87
2023/06/19 04:27:35;;;;;;;1.25;0.50;;;21.30;65.70;;;;;;5006041;28;20072;-87
2023/06/19 04:30:04;;;;;;;1.23;0.40;;;21.30;65.60;;;;;;5012670;28;20234;-88
2023/06/19 04:32:31;;;;;;;1.08;0.50;;;21.30;65.50;;;;;;4998828;28;20053;-88
2023/06/19 04:34:59;;;;;;;2.08;0.65;;;21.30;65.50;;;;;;4983570;28;20100;-87
2023/06/19 04:37:26;;;;;;;1.73;0.82;;;21.40;66.00;;;;;;4999185;28;20128;-88
2023/06/19 04:39:54;;;;;;;1.55;0.60;;;21.30;66.10;;;;;;4983261;28;20042;-88
2023/06/19 04:42:21;;;;;;;1.80;0.63;;;21.30;66.20;;;;;;5016735;28;20045;-88
2023/06/19 04:44:50;;;;;;;1.35;0.40;;;21.40;66.10;;;;;;5036999;28;20446;-88
2023/06/19 04:47:19;;;;;;;1.70;0.70;;;21.40;66.20;;;;;;5005919;28;20049;-88
2023/06/19 04:49:47;;;;;;;1.48;0.60;;;21.40;66.60;;;;;;5007629;28;20057;-88
2023/06/19 04:52:14;;;;;;;1.73;0.80;;;21.40;66.60;;;;;;5028679;28;20041;-88
2023/06/19 04:54:41;;;;;;;1.55;0.70;;;21.40;66.60;;;;;;5007200;28;20115;-89
2023/06/19 04:57:09;;;;;;;1.52;0.60;;;21.40;66.50;;;;;;5003855;28;20144;-88
2023/06/19 04:59:36;;;;;;;1.58;0.60;;;21.40;66.40;;;;;;5030630;28;20087;-88
2023/06/19 05:02:04;;;;;;;1.88;0.88;;;21.50;66.70;;;;;;5002511;28;20050;-88
2023/06/19 05:04:32;;;;;;;1.90;0.77;;;21.50;67.20;;;;;;5015941;28;20055;-87
2023/06/19 05:07:00;;;;;;;2.10;0.80;;;21.40;67.10;;;;;;4992591;28;20061;-88
2023/06/19 05:09:27;;;;;;;2.10;0.77;;;21.40;67.20;;;;;;5002272;28;20049;-88
2023/06/19 05:11:54;;;;;;;2.33;0.85;;;21.40;67.50;;;;;;5008841;28;20041;-88
2023/06/19 05:14:21;;;;;;;1.65;0.82;;;21.40;67.70;;;;;;5036812;28;20080;-88
2023/06/19 05:16:48;;;;;;;1.48;0.55;;;21.40;67.90;;;;;;5007836;28;20037;-88
2023/06/19 05:19:16;;;;;;;1.40;0.70;;;21.30;67.90;;;;;;4998587;28;20072;-88
2023/06/19 05:21:43;;;;;;;1.90;0.90;;;21.30;68.10;;;;;;5009301;28;20049;-88
2023/06/19 05:24:10;;;;;;;2.10;0.93;;;21.30;68.40;;;;;;4982278;28;20102;-87
2023/06/19 05:26:37;;;;;;;2.55;1.00;;;21.30;68.70;;;;;;5000002;28;20049;-88
2023/06/19 05:29:08;;;;;;;2.28;1.15;;;21.20;68.80;;;;;;5002462;28;20102;-88
2023/06/19 05:31:35;;;;;;;2.10;0.90;;;21.20;68.80;;;;;;5023142;28;20037;-88
2023/06/19 05:34:03;;;;;;;1.73;0.88;;;21.20;68.70;;;;;;4985487;28;20060;-88
2023/06/19 05:36:33;;;;;;;1.88;0.90;;;21.30;68.80;;;;;;4986269;28;20045;-88
2023/06/19 05:39:04;;;;;;;2.08;0.98;;;21.30;68.90;;;;;;4993316;28;20070;-88
2023/06/19 05:41:31;;;;;;;1.55;0.75;;;21.30;68.80;;;;;;4982650;28;20042;-88
2023/06/19 05:43:58;;;;;;;2.42;1.10;;;21.40;68.90;;;;;;5006296;28;20045;-88
2023/06/19 05:46:25;;;;;;;1.67;0.77;;;21.40;68.80;;;;;;5001431;28;20061;-88
2023/06/19 05:48:54;;;;;;;2.90;0.85;;;21.50;68.90;;;;;;4996644;28;20046;-88
2023/06/19 05:51:21;;;;;;;3.38;1.10;;;21.60;68.80;;;;;;4994652;28;20414;-88
2023/06/19 05:53:51;;;;;;;2.35;1.00;;;21.60;68.80;;;;;;5018408;28;20128;-88
2023/06/19 05:56:19;;;;;;;2.25;1.02;;;21.70;68.70;;;;;;5023862;28;20075;-88
2023/06/19 05:58:46;;;;;;;2.90;1.00;;;21.70;68.60;;;;;;5007142;28;20048;-89
2023/06/19 06:01:13;;;;;;;3.47;1.70;;;21.80;68.60;;;;;;5013536;28;20041;-88
2023/06/19 06:03:40;;;;;;;2.17;1.08;;;21.80;69.20;;;;;;5009377;28;20046;-88
2023/06/19 06:06:07;;;;;;;3.38;1.52;;;21.90;69.30;;;;;;5005619;28;20551;-88
2023/06/19 06:08:35;;;;;;;2.35;0.88;;;21.80;69.20;;;;;;4992061;28;20148;-88
2023/06/19 06:11:03;;;;;;;3.55;1.13;;;21.90;69.00;;;;;;5003922;28;20056;-88
2023/06/19 06:13:30;;;;;;;2.90;1.35;;;21.90;69.10;;;;;;4994224;28;20050;-88
2023/06/19 06:15:57;;;;;;;2.50;1.33;;;21.90;69.30;;;;;;4989029;28;20114;-87
2023/06/19 06:18:24;;;;;;;2.22;1.10;;;21.80;69.30;;;;;;5000534;28;20565;-88
2023/06/19 06:20:51;;;;;;;2.65;1.17;;;21.80;69.30;;;;;;4987976;28;20042;-88
2023/06/19 06:23:19;;;;;;;2.35;1.25;;;21.90;69.20;;;;;;5010941;28;20049;-87
2023/06/19 06:25:46;;;;;;;2.85;1.77;;;21.90;69.10;;;;;;5000160;28;20049;-87
2023/06/19 06:28:14;;;;;;;4.05;2.88;;;21.90;69.30;;;;;;5000870;28;20050;-88
2023/06/19 06:30:41;;;;;;;3.65;2.03;;;21.80;70.10;;;;;;4999902;28;20133;-88
2023/06/19 06:33:09;;;;;;;5.43;2.60;;;21.70;70.10;;;;;;5004444;28;20045;-88
2023/06/19 06:35:36;;;;;;;4.35;2.47;;;21.60;70.50;;;;;;4996975;28;20137;-88
2023/06/19 06:38:04;;;;;;;4.57;2.78;;;21.60;70.60;;;;;;4980901;28;20054;-89
2023/06/19 06:40:31;;;;;;;5.57;2.92;;;21.50;71.10;;;;;;4964647;28;20049;-89
2023/06/19 06:42:58;;;;;;;5.70;2.70;;;21.40;71.50;;;;;;4994724;28;20152;-88
2023/06/19 06:45:25;;;;;;;3.72;2.90;;;21.40;71.80;;;;;;4985541;28;20140;-88
2023/06/19 06:47:54;;;;;;;5.47;2.22;;;21.30;71.90;;;;;;4996898;28;20414;-88
2023/06/19 06:50:21;;;;;;;4.80;2.75;;;21.30;72.40;;;;;;4986905;28;20049;-88
2023/06/19 06:52:48;;;;;;;4.20;2.75;;;21.30;72.70;;;;;;4993330;28;20097;-88
2023/06/19 06:55:16;;;;;;;3.65;2.50;;;21.20;72.70;;;;;;4973365;28;20042;-88
2023/06/19 06:57:43;;;;;;;3.35;2.15;;;21.20;72.50;;;;;;4993668;28;20042;-87
2023/06/19 07:00:11;;;;;;;5.07;2.58;;;21.20;72.40;;;;;;5004880;28;20052;-88
2023/06/19 07:02:40;;;;;;;5.35;3.38;;;21.20;72.90;;;;;;5013143;28;20050;-88
2023/06/19 07:05:08;;;;;;;4.95;2.83;;;21.10;73.40;;;;;;4998958;28;20077;-87
2023/06/19 07:07:36;;;;;;;4.15;2.80;;;21.10;73.20;;;;;;5021851;28;20136;-87
2023/06/19 07:10:03;;;;;;;6.20;3.35;;;21.20;73.50;;;;;;4998268;28;20048;-88
2023/06/19 07:12:31;;;;;;;4.78;2.90;;;21.10;74.10;;;;;;5005573;28;20077;-88
2023/06/19 07:14:58;;;;;;;4.80;3.17;;;21.20;73.60;;;;;;5002998;28;20051;-88
2023/06/19 07:17:25;;;;;;;5.60;3.80;;;21.10;73.70;;;;;;4992846;28;20548;-89
2023/06/19 07:19:53;;;;;;;6.30;3.55;;;21.10;73.70;;;;;;5003059;28;20099;-88
2023/06/19 07:22:20;;;;;;;4.45;2.67;;;21.10;73.60;;;;;;5024974;28;20049;-88
2023/06/19 07:24:47;;;;;;;6.32;3.40;;;21.20;73.20;;;;;;4983514;28;20050;-88
2023/06/19 07:27:14;;;;;;;5.40;2.90;;;21.40;72.90;;;;;;5007862;28;20113;-88
2023/06/19 07:29:43;;;;;;;3.67;2.60;;;21.60;72.30;;;;;;5017862;28;20041;-87
2023/06/19 07:32:11;;;;;;;3.53;2.00;;;21.70;71.80;;;;;;5000340;28;20390;-88
2023/06/19 07:34:38;;;;;;;4.10;2.85;;;21.90;71.30;;;;;;5016796;28;20049;-87
2023/06/19 07:37:06;;;;;;;5.00;2.65;;;22.00;70.70;;;;;;5028577;28;20481;-88
2023/06/19 07:39:33;;;;;;;4.63;2.40;;;22.20;70.10;;;;;;5019666;28;20095;-88
2023/06/19 07:42:00;;;;;;;6.43;3.47;;;22.30;69.50;;;;;;5020054;28;20041;-88
2023/06/19 07:44:27;;;;;;;4.82;2.50;;;22.50;68.40;;;;;;5019900;28;20071;-89
2023/06/19 07:46:54;;;;;;;3.28;2.35;;;22.70;68.00;;;;;;5010892;28;20456;-89
2023/06/19 07:49:22;;;;;;;6.50;3.83;;;22.90;67.40;;;;;;5019592;28;20140;-89
2023/06/19 07:51:49;;;;;;;6.63;3.90;;;22.90;66.30;;;;;;5009144;28;20046;-89
2023/06/19 07:54:16;;;;;;;5.63;3.58;;;22.90;65.80;;;;;;4976827;28;19925;-85
2023/06/19 07:56:43;;;;;;;4.72;3.45;;;22.80;65.90;;;;;;4978893;28;20046;-81
2023/06/19 07:59:11;;;;;;;6.07;3.90;;;22.80;65.90;;;;;;4994571;28;20050;-81
2023/06/19 08:01:40;;;;;;;5.95;4.20;;;23.00;65.60;;;;;;4973698;28;20046;-81
2023/06/19 08:04:08;;;;;;;6.57;4.43;;;23.30;64.80;;;;;;5018297;28;20103;-80
2023/06/19 08:06:35;;;;;;;6.50;5.15;;;23.30;64.40;;;;;;5004752;28;20065;-81
2023/06/19 08:09:03;;;;;;;5.65;4.78;;;23.00;64.30;;;;;;5008347;28;20046;-81
2023/06/19 08:11:30;;;;;;;7.63;5.32;;;22.90;64.50;;;;;;4995583;28;20054;-81
2023/06/19 08:13:57;;;;;;;9.35;6.88;;;23.10;64.00;;;;;;4996180;28;20041;-80
2023/06/19 08:16:25;;;;;;;8.00;6.07;;;23.10;63.50;;;;;;5031188;28;20084;-80
2023/06/19 08:18:53;;;;;;;8.70;5.45;;;23.00;63.60;;;;;;4990851;28;20129;-81
2023/06/19 08:21:21;;;;;;;6.45;4.97;;;22.90;63.90;;;;;;4998029;28;20045;-80
2023/06/19 08:23:48;;;;;;;7.82;6.32;;;22.90;64.10;;;;;;4985964;28;20126;-80
2023/06/19 08:26:15;;;;;;;7.78;5.97;;;22.80;63.90;;;;;;5004237;28;20539;-88
2023/06/19 08:28:43;;;;;;;8.30;4.60;;;22.70;63.70;;;;;;4988926;28;20489;-80
2023/06/19 08:31:10;;;;;;;5.53;4.38;;;22.90;63.60;;;;;;5001750;28;20499;-84
2023/06/19 08:33:37;;;;;;;5.38;4.40;;;23.30;63.00;;;;;;4969117;28;20113;-84
2023/06/19 08:36:04;;;;;;;7.25;6.07;;;23.50;62.60;;;;;;5000986;28;20508;-81
2023/06/19 08:38:31;;;;;;;8.35;5.85;;;23.50;61.90;;;;;;5000352;28;20056;-80
2023/06/19 08:40:59;;;;;;;6.80;5.45;;;23.40;62.10;;;;;;4988174;28;20041;-85
2023/06/19 08:43:26;;;;;;;6.65;5.30;;;23.40;62.20;;;;;;5017332;28;20045;-81
2023/06/19 08:46:13;;;;;;;8.35;5.75;;;23.30;62.20;;;;;;4985579;28;20045;-82
2023/06/19 08:48:41;;;;;;;9.05;5.75;;;23.30;62.10;;;;;;5010540;28;20079;-81
2023/06/19 08:51:10;;;;;;;7.78;5.47;;;23.20;62.20;;;;;;5014371;28;20054;-81
2023/06/19 08:53:45;;;;;;;8.48;6.25;;;23.30;62.30;;;;;;5003423;28;20116;-85
2023/06/19 08:56:13;;;;;;;7.93;5.97;;;23.30;62.20;;;;;;5020508;28;20041;-82
2023/06/19 08:58:40;;;;;;;9.23;6.13;;;23.30;62.30;;;;;;5020167;28;20124;-82
2023/06/19 09:01:07;;;;;;;8.48;5.85;;;23.40;62.30;;;;;;5020491;28;20068;-82
2023/06/19 09:03:35;;;;;;;9.25;7.22;;;23.50;62.20;;;;;;5010059;28;20045;-83
2023/06/19 09:06:09;;;;;;;9.63;7.43;;;23.70;61.80;;;;;;4987382;28;20148;-87
2023/06/19 09:08:37;;;;;;;7.68;5.43;;;23.70;61.70;;;;;;5002153;28;20064;-86
2023/06/19 09:11:05;;;;;;;9.23;6.25;;;23.70;61.90;;;;;;4986553;28;20084;-86
2023/06/19 09:13:35;;;;;;;6.28;5.40;;;23.90;61.80;;;;;;4996389;28;20043;-86
2023/06/19 09:16:05;;;;;;;7.00;5.28;;;23.90;61.60;;;;;;5005658;28;20037;-87
2023/06/19 09:18:46;;;;;;;9.85;6.35;;;23.90;61.60;;;;;;5038234;28;20103;-87
2023/06/19 09:21:18;;;;;;;7.40;5.85;;;23.80;61.80;;;;;;5017747;28;20057;-83
2023/06/19 09:23:46;;;;;;;6.10;4.78;;;23.70;62.00;;;;;;5009176;28;20390;-86
2023/06/19 09:26:15;;;;;;;6.25;4.53;;;23.70;62.10;;;;;;4982129;28;20045;-86
2023/06/19 09:28:43;;;;;;;6.45;4.97;;;23.80;62.00;;;;;;5010806;28;20043;-86
2023/06/19 09:31:12;;;;;;;8.13;5.88;;;23.80;61.70;;;;;;5008341;28;20045;-87
2023/06/19 09:33:40;;;;;;;6.22;4.88;;;23.90;61.70;;;;;;5040503;28;20048;-88
2023/06/19 09:36:07;;;;;;;9.98;7.40;;;24.10;61.50;;;;;;5009311;28;20350;-88
2023/06/19 09:38:40;;;;;;;7.40;6.18;;;24.30;61.00;;;;;;4996766;28;20046;-89
2023/06/19 09:41:11;;;;;;;9.35;7.40;;;24.40;60.80;;;;;;5022769;28;20425;-87
2023/06/19 09:43:43;;;;;;;11.88;6.53;;;24.40;60.40;;;;;;5013163;28;20049;-86
2023/06/19 09:46:14;;;;;;;7.15;6.28;;;24.50;60.30;;;;;;5030050;28;20049;-85
2023/06/19 09:48:44;;;;;;;8.95;6.65;;;24.50;60.10;;;;;;5022421;28;20076;-85
2023/06/19 09:51:30;;;;;;;7.93;6.68;;;24.50;60.00;;;;;;4996971;28;20054;-85
2023/06/19 09:53:59;;;;;;;8.25;6.50;;;24.40;60.10;;;;;;5010227;28;20049;-83
2023/06/19 09:56:31;;;;;;;8.80;6.38;;;24.40;60.00;;;;;;4980608;28;20041;-83
2023/06/19 09:59:00;;;;;;;6.68;4.90;;;24.40;59.90;;;;;;5010840;28;20053;-86
2023/06/19 10:01:32;;;;;;;5.28;4.28;;;24.40;60.20;;;;;;4997191;28;20494;-90
2023/06/19 10:04:07;;;;;;;6.47;5.40;;;24.60;60.10;;;;;;4998934;28;20108;-87
2023/06/19 10:06:45;;;;;;;7.57;6.13;;;24.80;59.50;;;;;;4998051;28;20083;-88
2023/06/19 10:09:14;;;;;;;10.20;8.02;;;24.90;59.50;;;;;;4995386;28;20123;-87
2023/06/19 10:11:46;;;;;;;9.15;6.65;;;24.90;59.00;;;;;;5016583;28;20049;-85
2023/06/19 10:14:13;;;;;;;10.25;7.38;;;25.00;58.90;;;;;;5005859;28;20435;-85
2023/06/19 10:16:42;;;;;;;10.05;7.97;;;25.00;58.40;;;;;;4981196;28;20042;-87
2023/06/19 10:19:18;;;;;;;7.75;6.00;;;25.00;58.30;;;;;;5019722;28;20107;-86
2023/06/19 10:21:48;;;;;;;9.80;7.63;;;25.00;58.40;;;;;;4998391;28;20046;-84
2023/06/19 10:24:19;;;;;;;6.97;5.40;;;25.10;58.20;;;;;;5015045;28;20056;-86
2023/06/19 10:27:00;;;;;;;9.45;7.22;;;25.00;58.30;;;;;;5006487;28;20049;-85
2023/06/19 10:29:39;;;;;;;7.10;5.90;;;25.00;58.00;;;;;;5021081;28;20045;-85
2023/06/19 10:32:09;;;;;;;8.25;7.15;;;25.10;58.10;;;;;;4997633;28;20054;-85
2023/06/19 10:34:36;;;;;;;10.32;7.50;;;25.30;57.70;;;;;;4997568;28;20140;-85
2023/06/19 10:37:04;;;;;;;9.82;7.80;;;25.30;57.50;;;;;;5009721;28;20494;-86
2023/06/19 10:39:32;;;;;;;9.27;6.45;;;25.20;57.70;;;;;;5000417;28;20049;-88
2023/06/19 10:41:59;;;;;;;8.68;6.78;;;25.20;57.70;;;;;;5016695;28;20045;-87
2023/06/19 10:44:26;;;;;;;8.73;6.75;;;25.30;57.40;;;;;;4992606;28;20046;-85
2023/06/19 10:46:56;;;;;;;8.60;6.20;;;25.50;57.30;;;;;;5015596;28;20143;-84
2023/06/19 10:49:23;;;;;;;8.73;6.18;;;25.60;57.20;;;;;;4993771;28;20421;-86
2023/06/19 10:51:51;;;;;;;7.15;5.30;;;25.70;57.60;;;;;;4991803;28;20049;-87
2023/06/19 10:54:17;;;;;;;8.15;6.90;;;25.90;56.80;;;;;;5002141;28;20037;-86
2023/06/19 10:56:48;;;;;;;6.88;5.60;;;26.10;56.40;;;;;;4991835;28;20041;-85
2023/06/19 10:59:15;;;;;;;6.90;5.82;;;26.20;56.10;;;;;;5016144;28;20140;-84
2023/06/19 11:01:47;;;;;;;6.50;5.10;;;26.30;56.00;;;;;;5006480;28;20042;-83
2023/06/19 11:04:15;;;;;;;9.10;7.25;;;26.40;55.80;;;;;;4993536;28;20045;-84
2023/06/19 11:06:44;;;;;;;6.97;5.50;;;26.50;55.30;;;;;;4995586;28;20061;-86
2023/06/19 11:09:13;;;;;;;8.93;6.10;;;26.70;55.30;;;;;;4993348;28;20519;-86
2023/06/19 11:11:48;;;;;;;7.78;6.43;;;26.80;54.90;;;;;;4991971;28;20067;-86
2023/06/19 11:14:16;;;;;;;7.93;7.00;;;26.90;54.80;;;;;;5001650;28;20046;-86
2023/06/19 11:16:45;;;;;;;9.88;7.30;;;27.10;54.50;;;;;;5010005;28;20049;-88
2023/06/19 11:19:18;;;;;;;9.00;7.75;;;27.20;54.20;;;;;;5021934;28;20049;-85
2023/06/19 11:21:47;;;;;;;7.85;6.40;;;27.20;53.80;;;;;;5001862;28;20042;-86
2023/06/19 11:24:15;;;;;;;8.63;6.72;;;27.20;53.90;;;;;;5003890;28;20045;-87
2023/06/19 11:26:49;;;;;;;7.60;5.65;;;27.10;53.40;;;;;;5000433;28;20054;-87
2023/06/19 11:29:24;;;;;;;7.75;6.40;;;27.10;53.40;;;;;;5003751;28;20060;-85
2023/06/19 11:32:03;;;;;;;10.23;7.60;;;27.30;53.30;;;;;;4998072;28;20417;-90
2023/06/19 11:34:33;;;;;;;8.48;7.40;;;27.30;52.80;;;;;;5010621;28;20505;-87
2023/06/19 11:37:00;;;;;;;7.68;6.32;;;27.20;52.80;;;;;;4999226;28;20057;-82
2023/06/19 11:39:28;;;;;;;7.95;7.15;;;27.10;53.00;;;;;;4991070;28;20052;-84
2023/06/19 11:41:59;;;;;;;7.90;7.10;;;27.10;52.90;;;;;;5003202;28;20052;-86
2023/06/19 11:44:26;;;;;;;11.02;8.38;;;27.10;52.70;;;;;;5031535;28;20087;-87
2023/06/19 11:46:58;;;;;;;8.65;7.05;;;27.10;52.30;;;;;;5002931;28;20132;-86
2023/06/19 11:49:26;;;;;;;8.60;7.70;;;27.20;52.10;;;;;;5002789;28;20100;-84
2023/06/19 11:51:53;;;;;;;7.97;7.07;;;27.20;51.60;;;;;;4991218;28;20050;-86
2023/06/19 11:54:20;;;;;;;10.90;6.13;;;27.30;51.70;;;;;;5020480;28;20176;-88
2023/06/19 11:56:47;;;;;;;7.68;6.75;;;27.70;51.40;;;;;;4999847;28;20536;-84
2023/06/19 11:59:15;;;;;;;7.88;6.05;;;27.90;51.00;;;;;;4996913;28;20041;-85
2023/06/19 12:01:42;;;;;;;7.70;6.05;;;28.00;50.10;;;;;;4998949;28;20075;-85
2023/06/19 12:04:09;;;;;;;7.95;5.43;;;28.00;50.00;;;;;;4980350;28;20046;-85
2023/06/19 12:06:37;;;;;;;8.13;6.38;;;28.00;50.20;;;;;;5014262;28;20561;-83
2023/06/19 12:09:06;;;;;;;7.93;6.05;;;28.10;49.90;;;;;;5003018;28;20096;-85
2023/06/19 12:11:33;;;;;;;7.35;5.95;;;28.20;49.60;;;;;;4989150;28;20042;-86
2023/06/19 12:14:00;;;;;;;8.45;5.22;;;28.30;49.20;;;;;;5019053;28;20493;-87
2023/06/19 12:16:28;;;;;;;7.43;5.43;;;28.30;48.90;;;;;;4988599;28;20477;-86
2023/06/19 12:18:55;;;;;;;7.75;6.15;;;28.60;48.90;;;;;;4991578;28;20045;-87
2023/06/19 12:21:24;;;;;;;5.53;4.43;;;28.80;48.10;;;;;;4996703;28;20045;-88
2023/06/19 12:24:04;;;;;;;;;;;29.00;47.80;;;;;;5000505;28;20080;-87
2023/06/19 12:26:36;;;;;;;7.45;5.80;;;29.40;47.20;;;;;;5014194;28;19921;-85
2023/06/19 12:29:04;;;;;;;6.00;4.30;;;29.50;46.70;;;;;;5002286;28;20125;-84
2023/06/19 12:31:32;;;;;;;6.93;5.00;;;29.70;46.70;;;;;;4990835;28;20044;-86
2023/06/19 12:34:01;;;;;;;4.82;3.83;;;30.10;46.10;;;;;;5012521;28;20044;-87
2023/06/19 12:36:39;;;;;;;5.88;3.97;;;30.30;45.60;;;;;;5005776;28;20065;-84
2023/06/19 12:39:14;;;;;;;5.28;3.60;;;30.60;45.00;;;;;;5018908;28;20048;-85
2023/06/19 12:41:41;;;;;;;5.93;4.20;;;30.80;44.80;;;;;;5009816;28;20053;-85
2023/06/19 12:44:08;;;;;;;7.05;4.75;;;31.00;44.10;;;;;;5004150;28;20041;-86
2023/06/19 12:46:35;;;;;;;5.85;4.28;;;31.00;43.90;;;;;;4992053;28;20079;-85
2023/06/19 12:49:03;;;;;;;4.93;3.63;;;31.00;43.80;;;;;;5012277;28;20096;-78
2023/06/19 12:51:30;;;;;;;4.97;3.75;;;31.30;43.80;;;;;;5015191;28;20061;-85
2023/06/19 12:53:57;;;;;;;5.25;3.60;;;31.60;43.50;;;;;;5012453;28;20128;-85
2023/06/19 12:56:24;;;;;;;6.82;5.10;;;31.90;43.50;;;;;;4997950;28;20042;-84